Time;durP1;ratioP1;P1;durP2;ratioP2;P2;SDS_P1;SDS_P2;PMS_P1;PMS_P2;Temp;Humidity;BMP_temperature;BMP_pressure;BME280_temperature;BME280_humidity;BME280_pressure;Samples;Min_cycle;Max_cycle;Signal;HPM_P1;HPM_P2
2023/01/28 00:01:44;;;;;;;4.10;3.07;;;4.40;63.90;;;;;;5033261;28;20186;-77
2023/01/28 00:04:10;;;;;;;4.20;3.47;;;4.50;63.90;;;;;;5033127;28;20629;-77
2023/01/28 00:06:36;;;;;;;3.87;3.43;;;4.50;63.80;;;;;;5034539;28;20227;-78
2023/01/28 00:09:02;;;;;;;5.37;3.97;;;4.50;64.30;;;;;;5034268;28;20925;-77
2023/01/28 00:11:28;;;;;;;3.97;3.07;;;4.50;64.60;;;;;;5034464;28;20414;-77
2023/01/28 00:13:54;;;;;;;3.10;2.80;;;4.50;64.90;;;;;;5034095;28;20424;-77
2023/01/28 00:16:21;;;;;;;3.40;2.77;;;4.50;64.70;;;;;;5033874;28;20206;-77
2023/01/28 00:18:47;;;;;;;3.50;3.07;;;4.60;64.70;;;;;;5033854;28;20600;-77
2023/01/28 00:21:14;;;;;;;4.33;3.77;;;4.60;65.00;;;;;;5033858;28;20408;-77
2023/01/28 00:23:42;;;;;;;5.80;3.40;;;4.50;65.00;;;;;;5034041;28;20417;-77
2023/01/28 00:26:12;;;;;;;4.70;3.27;;;4.60;65.10;;;;;;5033995;28;20835;-78
2023/01/28 00:28:38;;;;;;;4.30;2.93;;;4.50;65.80;;;;;;5033899;28;20432;-78
2023/01/28 00:31:08;;;;;;;4.33;3.10;;;4.50;65.40;;;;;;5037257;28;20915;-77
2023/01/28 00:33:34;;;;;;;6.03;4.10;;;4.50;65.60;;;;;;5037405;28;20455;-77
2023/01/28 00:36:01;;;;;;;5.83;4.33;;;4.40;65.60;;;;;;5037791;28;20460;-77
2023/01/28 00:38:27;;;;;;;6.40;4.23;;;4.40;66.10;;;;;;5037385;28;20433;-77
2023/01/28 00:40:53;;;;;;;5.17;3.93;;;4.50;65.90;;;;;;5037261;28;20416;-77
2023/01/28 00:43:19;;;;;;;4.93;4.07;;;4.50;65.70;;;;;;5036839;28;20417;-77
2023/01/28 00:45:45;;;;;;;5.87;4.17;;;4.50;65.60;;;;;;5037983;28;20179;-77
2023/01/28 00:48:11;;;;;;;5.70;4.30;;;4.50;65.70;;;;;;5037665;28;20199;-77
2023/01/28 00:50:38;;;;;;;5.90;3.87;;;4.50;65.50;;;;;;5037323;28;20417;-77
2023/01/28 00:53:03;;;;;;;5.00;4.47;;;4.50;65.40;;;;;;5036962;28;20225;-79
2023/01/28 00:55:29;;;;;;;5.97;4.33;;;4.40;65.50;;;;;;5036758;28;20505;-79
2023/01/28 00:57:55;;;;;;;8.17;4.30;;;4.30;65.60;;;;;;5040106;28;20195;-78
2023/01/28 01:00:26;;;;;;;5.10;4.10;;;4.40;65.80;;;;;;5057745;28;20159;-78
2023/01/28 01:02:51;;;;;;;6.13;3.73;;;4.40;65.60;;;;;;5056385;28;20181;-78
2023/01/28 01:05:17;;;;;;;5.73;4.00;;;4.50;66.20;;;;;;5057133;28;20426;-79
2023/01/28 01:07:43;;;;;;;4.93;4.33;;;4.50;65.20;;;;;;5057153;28;20420;-78
2023/01/28 01:10:17;;;;;;;5.00;3.77;;;4.50;65.30;;;;;;5055762;28;20175;-79
2023/01/28 01:12:48;;;;;;;4.23;3.80;;;4.50;65.30;;;;;;5057671;28;20166;-78
2023/01/28 01:15:15;;;;;;;6.60;4.43;;;4.60;65.20;;;;;;5056764;28;20504;-78
2023/01/28 01:17:42;;;;;;;5.63;5.03;;;4.60;65.10;;;;;;5054934;28;20414;-79
2023/01/28 01:20:13;;;;;;;5.57;4.73;;;4.60;64.50;;;;;;5054156;28;20450;-78
2023/01/28 01:22:39;;;;;;;6.27;4.70;;;4.60;64.60;;;;;;5054700;28;20527;-80
2023/01/28 01:25:05;;;;;;;4.70;3.73;;;4.60;64.50;;;;;;5051935;28;20486;-79
2023/01/28 01:27:31;;;;;;;5.13;4.57;;;4.70;64.70;;;;;;5053259;28;20228;-79
2023/01/28 01:29:57;;;;;;;5.80;4.33;;;4.60;65.10;;;;;;5052727;28;20438;-78
2023/01/28 01:32:24;;;;;;;5.60;5.00;;;4.50;65.20;;;;;;5054037;28;20498;-80
2023/01/28 01:34:50;;;;;;;5.13;4.07;;;4.40;65.80;;;;;;5052172;28;20406;-79
2023/01/28 01:37:15;;;;;;;8.00;4.57;;;4.40;66.30;;;;;;5041923;28;20820;-76
2023/01/28 01:39:41;;;;;;;5.40;4.57;;;4.20;66.60;;;;;;5044095;28;20194;-77
2023/01/28 01:42:11;;;;;;;6.20;4.53;;;4.20;67.10;;;;;;5049155;28;20175;-79
2023/01/28 01:44:56;;;;;;;7.40;5.60;;;4.30;67.30;;;;;;5038002;28;20188;-76
2023/01/28 01:47:37;;;;;;;6.97;5.57;;;4.20;67.20;;;;;;5038901;28;20423;-78
2023/01/28 01:50:30;;;;;;;6.53;4.60;;;4.20;67.60;;;;;;5037720;28;20419;-78
2023/01/28 01:53:01;;;;;;;7.90;4.93;;;4.10;67.90;;;;;;5036660;28;20472;-77
2023/01/28 01:55:29;;;;;;;7.17;5.20;;;4.10;68.20;;;;;;5035075;28;20954;-78
2023/01/28 01:57:58;;;;;;;6.17;5.57;;;4.20;68.20;;;;;;5036307;28;20449;-78
2023/01/28 02:00:24;;;;;;;7.10;4.90;;;4.20;68.20;;;;;;5035932;28;20814;-78
2023/01/28 02:02:51;;;;;;;6.93;4.53;;;4.20;68.30;;;;;;5036580;28;20410;-78
2023/01/28 02:05:20;;;;;;;7.57;5.27;;;4.20;68.40;;;;;;5035911;28;20193;-77
2023/01/28 02:07:48;;;;;;;5.80;4.63;;;4.20;69.00;;;;;;5035905;28;20422;-77
2023/01/28 02:10:15;;;;;;;5.90;4.53;;;4.10;68.60;;;;;;5035623;28;20421;-78
2023/01/28 02:12:51;;;;;;;6.20;5.03;;;4.10;68.40;;;;;;5035606;28;20413;-77
2023/01/28 02:15:20;;;;;;;8.40;6.00;;;4.00;68.20;;;;;;5035662;28;20446;-77
2023/01/28 02:17:47;;;;;;;8.50;5.97;;;3.80;68.60;;;;;;5035282;28;20441;-77
2023/01/28 02:20:21;;;;;;;7.00;5.40;;;3.80;68.60;;;;;;5035885;28;21017;-77
2023/01/28 02:22:52;;;;;;;8.33;6.30;;;3.90;68.40;;;;;;5035562;28;20544;-77
2023/01/28 02:25:42;;;;;;;10.80;5.93;;;3.90;68.00;;;;;;5035409;28;20436;-77
2023/01/28 02:28:23;;;;;;;7.37;5.57;;;4.00;67.50;;;;;;5035413;28;20440;-77
2023/01/28 02:31:10;;;;;;;8.67;6.40;;;4.00;67.20;;;;;;5035578;28;20429;-78
2023/01/28 02:33:43;;;;;;;8.13;6.13;;;4.00;67.10;;;;;;5035320;28;20444;-78
2023/01/28 02:36:18;;;;;;;8.03;6.10;;;4.00;66.60;;;;;;5034890;28;20459;-78
2023/01/28 02:38:50;;;;;;;7.87;5.77;;;4.00;66.70;;;;;;5035211;28;20425;-76
2023/01/28 02:41:39;;;;;;;8.63;6.33;;;4.00;66.70;;;;;;5034939;28;20416;-77
2023/01/28 02:44:05;;;;;;;7.30;5.57;;;4.00;66.60;;;;;;5035188;28;20393;-78
2023/01/28 02:49:24;;;;;;;8.37;5.63;;;3.80;67.20;;;;;;5035010;28;20573;-77
2023/01/28 02:51:55;;;;;;;8.20;6.47;;;3.80;67.60;;;;;;5035347;28;20887;-76
2023/01/28 02:54:31;;;;;;;8.80;7.10;;;3.80;67.70;;;;;;5035641;28;20778;-78
2023/01/28 02:57:22;;;;;;;9.47;7.47;;;3.80;67.70;;;;;;5035328;28;20947;-77
2023/01/28 03:00:04;;;;;;;9.17;6.87;;;3.80;68.20;;;;;;5035481;28;20846;-77
2023/01/28 03:02:36;;;;;;;9.77;6.20;;;3.90;68.40;;;;;;5035445;28;20412;-78
2023/01/28 03:05:19;;;;;;;8.90;6.43;;;3.90;68.40;;;;;;5035311;28;20400;-77
2023/01/28 03:07:45;;;;;;;10.57;6.50;;;3.70;68.80;;;;;;5035939;28;20837;-78
2023/01/28 03:10:15;;;;;;;10.90;6.33;;;3.70;69.30;;;;;;5036038;28;20413;-77
2023/01/28 03:38:57;;;;;;;10.13;7.13;;;3.70;69.80;;;;;;5034364;28;20817;-77
2023/01/28 03:41:25;;;;;;;8.73;5.80;;;3.80;69.60;;;;;;5034767;28;20388;-77
2023/01/28 03:43:52;;;;;;;8.60;6.53;;;3.90;69.40;;;;;;5034561;28;20499;-77
2023/01/28 03:46:18;;;;;;;10.20;5.90;;;3.90;69.00;;;;;;5034508;28;20440;-79
2023/01/28 03:48:44;;;;;;;8.27;5.13;;;4.00;68.90;;;;;;5033418;28;20434;-77
2023/01/28 03:51:10;;;;;;;9.90;5.43;;;4.10;68.70;;;;;;5034819;28;20413;-78
2023/01/28 03:53:37;;;;;;;10.57;6.90;;;4.10;68.60;;;;;;5034679;28;20479;-78
2023/01/28 03:56:03;;;;;;;8.87;6.00;;;4.20;68.70;;;;;;5034316;28;20200;-77
2023/01/28 04:01:13;;;;;;;7.67;6.10;;;4.20;68.30;;;;;;5035436;28;20251;-77
2023/01/28 04:03:38;;;;;;;8.27;5.93;;;4.30;68.10;;;;;;5034793;28;20434;-78
2023/01/28 04:06:06;;;;;;;10.90;7.00;;;4.30;68.20;;;;;;5038616;28;20233;-77
2023/01/28 04:08:32;;;;;;;7.20;5.50;;;4.30;67.70;;;;;;5038262;28;20189;-75
2023/01/28 04:11:14;;;;;;;8.80;5.77;;;4.20;67.50;;;;;;5038970;28;20417;-77
2023/01/28 04:13:40;;;;;;;8.50;6.10;;;4.30;67.70;;;;;;5039081;28;20883;-76
2023/01/28 04:16:07;;;;;;;9.47;5.70;;;4.30;67.30;;;;;;5038159;28;20559;-76
2023/01/28 04:18:33;;;;;;;10.13;5.57;;;4.30;67.30;;;;;;5037979;28;20430;-77
2023/01/28 04:20:58;;;;;;;8.00;5.30;;;4.30;67.10;;;;;;5038001;28;20928;-78
2023/01/28 04:23:24;;;;;;;10.33;7.10;;;4.30;67.00;;;;;;5038369;28;20408;-78
2023/01/28 04:25:50;;;;;;;7.97;5.63;;;4.30;67.30;;;;;;5038157;28;20640;-76
2023/01/28 04:28:15;;;;;;;7.53;5.87;;;4.30;67.20;;;;;;5037909;28;20217;-77
2023/01/28 04:30:41;;;;;;;6.27;4.77;;;4.30;66.70;;;;;;5038462;28;20887;-76
2023/01/28 04:33:07;;;;;;;7.97;6.40;;;4.40;66.60;;;;;;5037858;28;20199;-77
2023/01/28 04:35:32;;;;;;;6.87;5.30;;;4.30;66.60;;;;;;5037876;28;20179;-77
2023/01/28 04:37:58;;;;;;;9.23;5.77;;;4.30;66.80;;;;;;5036432;28;20190;-78
2023/01/28 04:40:23;;;;;;;10.03;6.50;;;4.40;66.70;;;;;;5038226;28;20641;-76
2023/01/28 04:42:53;;;;;;;8.53;6.20;;;4.40;66.60;;;;;;5037584;28;20540;-78
2023/01/28 04:45:20;;;;;;;8.73;6.10;;;4.30;66.40;;;;;;5038033;28;20624;-78
2023/01/28 04:47:45;;;;;;;8.03;5.47;;;4.30;66.70;;;;;;5037734;28;20403;-77
2023/01/28 04:50:11;;;;;;;7.17;5.37;;;4.40;66.60;;;;;;5037974;28;20769;-77
2023/01/28 04:52:36;;;;;;;9.60;4.80;;;4.40;66.40;;;;;;5037380;28;20169;-77
2023/01/28 04:55:02;;;;;;;8.97;5.10;;;4.50;66.20;;;;;;5038268;28;20563;-78
2023/01/28 04:57:28;;;;;;;7.33;5.40;;;4.40;66.00;;;;;;5037263;28;20199;-76
2023/01/28 04:59:53;;;;;;;6.80;5.10;;;4.40;65.70;;;;;;5037590;28;20247;-77
2023/01/28 05:02:19;;;;;;;6.00;4.50;;;4.40;65.90;;;;;;5037686;28;20209;-78
2023/01/28 05:04:45;;;;;;;6.03;4.83;;;4.30;65.80;;;;;;5037279;28;20262;-77
2023/01/28 05:07:11;;;;;;;6.80;4.93;;;4.20;66.30;;;;;;5037206;28;20187;-77
2023/01/28 05:09:37;;;;;;;7.87;4.83;;;4.20;66.40;;;;;;5037553;28;20238;-76
2023/01/28 05:12:02;;;;;;;6.50;4.70;;;4.20;66.40;;;;;;5036640;28;20410;-78
2023/01/28 05:14:28;;;;;;;8.03;4.80;;;4.10;66.80;;;;;;5037076;28;20422;-77
2023/01/28 05:16:54;;;;;;;7.30;4.50;;;4.10;67.20;;;;;;5036272;28;20475;-77
2023/01/28 05:19:19;;;;;;;5.97;4.47;;;4.10;67.40;;;;;;5036646;28;20253;-77
2023/01/28 05:21:45;;;;;;;6.90;4.90;;;4.10;67.60;;;;;;5036950;28;20178;-78
2023/01/28 05:24:11;;;;;;;6.00;4.50;;;4.00;67.50;;;;;;5043542;28;20186;-78
2023/01/28 05:26:36;;;;;;;8.97;5.20;;;4.00;67.70;;;;;;5047836;28;20183;-78
2023/01/28 05:29:03;;;;;;;6.63;4.73;;;4.00;67.80;;;;;;5049573;28;20457;-78
2023/01/28 05:31:28;;;;;;;6.67;4.90;;;3.90;67.90;;;;;;5050987;28;20196;-78
2023/01/28 05:33:54;;;;;;;7.67;4.63;;;3.80;68.20;;;;;;5051113;28;20441;-79
2023/01/28 05:36:20;;;;;;;5.97;4.43;;;3.70;68.40;;;;;;5051799;28;20224;-78
2023/01/28 05:38:46;;;;;;;5.00;4.13;;;3.70;68.30;;;;;;5050682;28;20428;-78
2023/01/28 05:41:11;;;;;;;4.67;3.40;;;3.70;67.80;;;;;;5050850;28;20189;-79
2023/01/28 05:43:37;;;;;;;5.90;3.77;;;3.70;67.70;;;;;;5048169;28;20238;-78
2023/01/28 05:46:03;;;;;;;5.50;3.90;;;3.80;67.80;;;;;;5048716;28;20179;-77
2023/01/28 05:48:28;;;;;;;4.73;3.80;;;3.90;67.20;;;;;;5045663;28;20695;-80
2023/01/28 05:50:54;;;;;;;4.73;3.23;;;3.90;66.90;;;;;;5043612;28;20186;-79
2023/01/28 05:53:20;;;;;;;6.77;3.13;;;3.90;66.50;;;;;;5045177;28;20194;-77
2023/01/28 05:55:49;;;;;;;4.77;3.40;;;4.00;66.00;;;;;;5044857;28;20212;-79
2023/01/28 05:58:15;;;;;;;4.37;3.57;;;3.80;65.50;;;;;;5045794;28;20436;-78
2023/01/28 06:00:41;;;;;;;3.27;2.97;;;3.80;65.50;;;;;;5045747;28;20843;-79
2023/01/28 06:03:07;;;;;;;4.70;3.13;;;3.70;65.20;;;;;;5045365;28;20412;-78
2023/01/28 06:05:32;;;;;;;3.40;2.47;;;3.80;65.30;;;;;;5045604;28;20170;-79
2023/01/28 06:07:58;;;;;;;3.00;2.60;;;3.80;65.30;;;;;;5046809;28;20560;-78
2023/01/28 06:10:23;;;;;;;4.07;2.53;;;3.80;64.90;;;;;;5046049;28;20531;-78
2023/01/28 06:12:49;;;;;;;4.20;2.13;;;3.80;64.40;;;;;;5036190;28;20182;-77
2023/01/28 06:15:15;;;;;;;3.33;2.47;;;3.70;64.30;;;;;;5035992;28;20200;-77
2023/01/28 06:17:40;;;;;;;3.87;2.87;;;3.80;63.90;;;;;;5035992;28;20641;-78
2023/01/28 06:20:07;;;;;;;5.13;3.07;;;3.60;63.60;;;;;;5035858;28;20267;-77
2023/01/28 06:22:33;;;;;;;2.87;2.27;;;3.60;63.50;;;;;;5036166;28;20197;-77
2023/01/28 06:24:58;;;;;;;3.40;2.07;;;3.60;63.80;;;;;;5036106;28;20406;-77
2023/01/28 06:27:24;;;;;;;3.00;2.10;;;3.70;64.60;;;;;;5035859;28;20218;-77
2023/01/28 06:29:50;;;;;;;4.33;2.10;;;3.80;63.80;;;;;;5034947;28;20612;-76
2023/01/28 06:32:15;;;;;;;3.00;2.60;;;3.80;63.40;;;;;;5035903;28;20214;-77
2023/01/28 06:34:41;;;;;;;3.47;2.60;;;3.90;63.30;;;;;;5035594;28;20184;-79
2023/01/28 06:37:06;;;;;;;3.37;2.50;;;3.80;62.80;;;;;;5035712;28;20209;-76
2023/01/28 06:39:32;;;;;;;3.70;2.40;;;3.80;63.00;;;;;;5036556;28;20194;-77
2023/01/28 06:41:58;;;;;;;2.67;2.30;;;3.90;63.00;;;;;;5035564;28;20713;-77
2023/01/28 06:44:24;;;;;;;3.67;2.60;;;4.00;62.70;;;;;;5035297;28;20557;-78
2023/01/28 06:46:50;;;;;;;2.97;2.27;;;4.10;62.50;;;;;;5035147;28;20410;-76
2023/01/28 06:49:15;;;;;;;2.27;2.03;;;4.10;62.30;;;;;;5035046;28;20282;-77
2023/01/28 06:51:41;;;;;;;3.47;2.43;;;4.00;62.00;;;;;;5035277;28;20176;-76
2023/01/28 06:54:07;;;;;;;4.00;2.70;;;4.00;62.00;;;;;;5035091;28;20189;-77
2023/01/28 06:56:32;;;;;;;2.90;2.60;;;4.00;62.10;;;;;;5035450;28;20671;-79
2023/01/28 06:58:58;;;;;;;3.37;2.47;;;4.00;61.80;;;;;;5035258;28;20245;-76
2023/01/28 07:01:24;;;;;;;2.87;2.27;;;4.00;61.60;;;;;;5033811;28;20175;-77
2023/01/28 07:03:50;;;;;;;2.97;2.67;;;3.80;61.60;;;;;;5035162;28;20421;-77
2023/01/28 07:06:15;;;;;;;2.40;1.90;;;3.80;61.50;;;;;;5035345;28;20214;-76
2023/01/28 07:08:41;;;;;;;3.00;2.30;;;3.90;61.60;;;;;;5036252;28;20299;-77
2023/01/28 07:11:07;;;;;;;3.97;2.50;;;4.00;61.20;;;;;;5035390;28;20171;-77
2023/01/28 07:13:33;;;;;;;2.47;2.17;;;3.90;60.90;;;;;;5034847;28;20251;-77
2023/01/28 07:15:59;;;;;;;3.67;2.20;;;4.00;61.30;;;;;;5035218;28;20489;-77
2023/01/28 07:18:24;;;;;;;3.33;2.47;;;4.00;60.70;;;;;;5033487;28;20199;-78
2023/01/28 07:20:50;;;;;;;2.60;2.20;;;4.10;60.60;;;;;;5034795;28;20402;-77
2023/01/28 07:23:15;;;;;;;3.37;2.80;;;4.10;60.40;;;;;;5033238;28;20229;-77
2023/01/28 07:25:41;;;;;;;2.90;2.70;;;4.20;60.10;;;;;;5033651;28;20691;-78
2023/01/28 07:28:08;;;;;;;7.00;3.67;;;4.20;59.90;;;;;;5034637;28;20192;-77
2023/01/28 07:30:34;;;;;;;4.00;3.23;;;4.10;60.00;;;;;;5035016;28;20181;-77
2023/01/28 07:32:59;;;;;;;4.17;3.07;;;4.10;60.00;;;;;;5034934;28;20747;-78
2023/01/28 07:35:26;;;;;;;4.23;3.30;;;4.10;60.00;;;;;;5045838;28;20179;-77
2023/01/28 07:37:53;;;;;;;8.70;4.90;;;4.00;59.80;;;;;;5048979;28;20213;-79
2023/01/28 07:40:19;;;;;;;8.20;4.17;;;4.00;59.90;;;;;;5054480;28;20442;-78
2023/01/28 07:42:45;;;;;;;4.10;3.00;;;3.90;60.10;;;;;;5054469;28;20411;-80
2023/01/28 07:45:10;;;;;;;3.60;2.93;;;4.00;60.10;;;;;;5053774;28;20185;-78
2023/01/28 07:47:36;;;;;;;4.53;3.50;;;4.00;60.20;;;;;;5054448;28;20202;-79
2023/01/28 07:50:02;;;;;;;3.37;2.87;;;4.00;59.90;;;;;;5060959;28;20245;-80
2023/01/28 07:52:28;;;;;;;2.30;2.10;;;4.00;59.70;;;;;;5060611;28;20188;-81
2023/01/28 07:54:53;;;;;;;2.87;2.13;;;4.00;59.40;;;;;;5057429;28;20411;-80
2023/01/28 07:57:22;;;;;;;2.80;2.50;;;4.00;59.60;;;;;;5052711;28;20204;-79
2023/01/28 07:59:50;;;;;;;3.13;2.27;;;4.00;59.50;;;;;;5049405;28;20249;-79
2023/01/28 08:02:17;;;;;;;2.53;2.30;;;4.10;59.40;;;;;;5046158;28;20460;-79
2023/01/28 08:04:43;;;;;;;2.60;2.40;;;4.00;59.30;;;;;;5049007;28;20407;-80
2023/01/28 08:07:09;;;;;;;3.70;2.17;;;4.00;59.20;;;;;;5045052;28;20423;-79
2023/01/28 08:09:34;;;;;;;3.30;2.20;;;3.90;59.30;;;;;;5046448;28;20503;-79
2023/01/28 08:12:03;;;;;;;3.30;2.83;;;4.00;59.20;;;;;;5053337;28;20418;-80
2023/01/28 08:14:29;;;;;;;3.70;1.90;;;4.00;59.10;;;;;;5055134;28;20192;-80
2023/01/28 08:16:55;;;;;;;2.70;1.73;;;4.00;59.00;;;;;;5059634;28;20456;-81
2023/01/28 08:19:27;;;;;;;2.97;2.67;;;3.90;58.70;;;;;;5059351;28;20255;-81
2023/01/28 08:21:52;;;;;;;2.80;2.20;;;4.00;59.10;;;;;;5051409;28;20179;-80
2023/01/28 08:24:18;;;;;;;3.33;2.60;;;3.90;59.60;;;;;;5044768;28;20402;-80
2023/01/28 08:26:45;;;;;;;3.90;2.20;;;3.90;59.90;;;;;;5044650;28;20184;-80
2023/01/28 08:29:10;;;;;;;3.03;2.40;;;3.80;59.70;;;;;;5047711;28;20216;-80
2023/01/28 08:31:36;;;;;;;2.40;2.07;;;3.90;59.50;;;;;;5043395;28;20463;-80
2023/01/28 08:34:01;;;;;;;2.93;2.00;;;3.80;59.10;;;;;;5045996;28;20194;-80
2023/01/28 08:36:27;;;;;;;1.80;1.70;;;3.80;58.80;;;;;;5040911;28;20207;-80
2023/01/28 08:38:53;;;;;;;3.03;2.50;;;3.60;59.00;;;;;;5039702;28;20554;-81
2023/01/28 08:41:22;;;;;;;3.87;3.00;;;3.70;59.30;;;;;;5044667;28;20170;-79
2023/01/28 08:43:48;;;;;;;2.63;2.00;;;3.80;59.10;;;;;;5047561;28;20409;-79
2023/01/28 08:46:14;;;;;;;5.10;2.07;;;3.80;58.60;;;;;;5041602;28;20437;-80
2023/01/28 08:48:41;;;;;;;4.03;2.13;;;3.80;58.70;;;;;;5044211;28;20195;-79
2023/01/28 08:51:07;;;;;;;2.70;1.87;;;3.80;58.10;;;;;;5037663;28;20431;-79
2023/01/28 08:53:33;;;;;;;2.30;2.00;;;3.70;58.30;;;;;;5042647;28;20781;-79
2023/01/28 08:56:04;;;;;;;2.97;1.97;;;3.80;58.40;;;;;;5044481;28;20496;-82
2023/01/28 08:58:29;;;;;;;1.70;1.60;;;3.80;57.90;;;;;;5041023;28;20228;-78
2023/01/28 09:00:55;;;;;;;2.00;1.80;;;3.80;58.10;;;;;;5040990;28;20786;-79
2023/01/28 09:03:20;;;;;;;2.67;2.10;;;3.90;57.90;;;;;;5041275;28;20169;-78
2023/01/28 09:05:48;;;;;;;3.33;2.50;;;4.00;57.70;;;;;;5044440;28;20214;-78
2023/01/28 09:08:14;;;;;;;1.63;1.53;;;3.90;57.40;;;;;;5047616;28;20187;-78
2023/01/28 09:10:40;;;;;;;2.17;1.40;;;3.90;57.50;;;;;;5048431;28;20988;-79
2023/01/28 09:13:08;;;;;;;2.93;2.70;;;3.70;57.40;;;;;;5052006;28;20414;-78
2023/01/28 09:15:34;;;;;;;2.30;2.10;;;3.80;57.50;;;;;;5044567;28;20421;-79
2023/01/28 09:18:00;;;;;;;2.93;2.33;;;3.70;57.30;;;;;;5040508;28;20456;-79
2023/01/28 09:20:27;;;;;;;2.40;1.70;;;3.70;57.30;;;;;;5038041;28;20476;-75
2023/01/28 09:23:46;;;;;;;1.80;1.57;;;4.00;63.40;;;;;;5133229;27;20566;-72
2023/01/28 09:26:12;;;;;;;2.90;1.87;;;4.90;79.80;;;;;;5132380;27;20475;-71
2023/01/28 09:28:39;;;;;;;8.70;2.00;;;6.10;79.70;;;;;;5132126;28;20467;-69
2023/01/28 09:31:14;;;;;;;2.93;1.57;;;7.50;75.00;;;;;;5131845;28;20639;-69
2023/01/28 09:33:40;;;;;;;4.60;1.70;;;8.60;70.40;;;;;;5131783;28;20387;-69
2023/01/28 09:36:08;;;;;;;3.63;1.50;;;9.80;65.70;;;;;;5132379;28;20406;-65
2023/01/28 09:38:35;;;;;;;3.90;2.33;;;10.80;60.70;;;;;;5131373;27;20188;-66
2023/01/28 09:41:03;;;;;;;1.70;1.37;;;11.70;58.30;;;;;;5131933;28;20409;-65
2023/01/28 09:44:11;;;;;;;5.93;1.70;;;12.50;56.30;;;;;;5131249;28;20989;-72
2023/01/28 09:46:37;;;;;;;2.20;1.97;;;13.30;54.30;;;;;;5131623;28;20419;-70
2023/01/28 09:49:19;;;;;;;6.20;2.07;;;14.00;52.80;;;;;;5131313;28;20938;-66
2023/01/28 09:51:51;;;;;;;5.90;1.90;;;14.60;51.20;;;;;;5131017;28;20235;-72
2023/01/28 09:54:39;;;;;;;3.47;1.80;;;15.20;50.10;;;;;;5131361;28;20761;-67
2023/01/28 09:57:19;;;;;;;3.60;1.90;;;15.60;49.00;;;;;;5131333;28;20455;-72
2023/01/28 09:59:45;;;;;;;2.83;1.63;;;15.90;48.30;;;;;;5131104;27;20497;-72
2023/01/28 10:02:39;;;;;;;6.20;1.70;;;16.10;47.80;;;;;;5131040;28;21036;-71
2023/01/28 10:05:23;;;;;;;3.73;1.47;;;16.40;47.00;;;;;;5131242;27;20246;-70
2023/01/28 10:08:39;;;;;;;6.17;1.90;;;16.60;45.90;;;;;;5130970;27;20406;-71
2023/01/28 10:11:08;;;;;;;2.37;1.40;;;16.80;45.30;;;;;;5112942;27;20405;-71
2023/01/28 10:13:55;;;;;;;3.23;1.30;;;17.00;44.90;;;;;;5130873;28;20398;-71
2023/01/28 10:16:28;;;;;;;1.90;1.50;;;17.10;44.50;;;;;;5130768;27;20454;-71
2023/01/28 10:19:10;;;;;;;3.43;1.73;;;17.20;44.20;;;;;;5131277;28;20415;-71
2023/01/28 10:21:44;;;;;;;4.40;1.53;;;17.30;44.00;;;;;;5129401;28;20412;-69
2023/01/28 10:24:37;;;;;;;1.70;1.30;;;17.30;43.70;;;;;;5130786;28;20436;-67
2023/01/28 10:27:14;;;;;;;2.03;1.37;;;17.40;43.50;;;;;;5130551;27;20426;-67
2023/01/28 10:29:42;;;;;;;3.53;1.93;;;17.40;43.30;;;;;;5130560;27;20434;-66
2023/01/28 10:32:32;;;;;;;2.00;1.80;;;17.40;43.10;;;;;;5130459;27;20466;-66
2023/01/28 10:35:00;;;;;;;2.03;1.43;;;17.40;42.90;;;;;;5117721;28;20441;-66
2023/01/28 10:37:27;;;;;;;3.00;1.60;;;17.50;42.80;;;;;;5116848;28;20406;-67
2023/01/28 10:39:57;;;;;;;3.13;1.50;;;17.50;42.70;;;;;;5116650;28;20456;-72
2023/01/28 10:42:28;;;;;;;1.87;1.47;;;17.50;42.50;;;;;;5117181;28;20403;-72
2023/01/28 10:45:01;;;;;;;1.97;1.47;;;17.50;42.40;;;;;;5117212;28;20391;-73
2023/01/28 10:47:37;;;;;;;1.90;1.40;;;17.50;42.30;;;;;;5116656;28;20414;-72
2023/01/28 10:50:04;;;;;;;2.63;1.50;;;17.50;42.10;;;;;;5117060;28;20494;-72
2023/01/28 10:52:30;;;;;;;2.50;1.60;;;17.50;42.00;;;;;;5116444;28;20533;-73
2023/01/28 10:55:04;;;;;;;2.10;1.27;;;17.50;41.90;;;;;;5116711;28;20510;-73
2023/01/28 10:57:32;;;;;;;1.73;1.40;;;17.50;41.90;;;;;;5116425;28;20255;-68
2023/01/28 11:00:27;;;;;;;6.83;2.20;;;17.50;41.80;;;;;;5116173;28;20434;-67
2023/01/28 11:02:53;;;;;;;5.83;2.17;;;17.40;41.70;;;;;;5116044;28;20910;-67
2023/01/28 11:05:27;;;;;;;3.83;1.90;;;17.40;42.20;;;;;;5116056;28;20402;-67
2023/01/28 11:08:04;;;;;;;2.50;1.40;;;17.40;41.80;;;;;;5116296;28;20415;-71
2023/01/28 11:10:37;;;;;;;2.27;1.60;;;17.40;41.70;;;;;;5116324;28;20402;-72
2023/01/28 11:13:24;;;;;;;5.03;1.90;;;17.40;42.10;;;;;;5116090;28;20557;-72
2023/01/28 11:16:04;;;;;;;7.40;1.83;;;17.40;41.60;;;;;;5116366;28;20906;-72
2023/01/28 11:18:35;;;;;;;3.73;1.90;;;17.30;39.60;;;;;;5115999;28;20761;-72
2023/01/28 11:21:06;;;;;;;2.50;1.77;;;17.20;39.00;;;;;;5116185;28;20392;-72
2023/01/28 11:23:37;;;;;;;2.57;1.60;;;17.20;39.70;;;;;;5116053;28;20498;-72
2023/01/28 11:26:07;;;;;;;2.83;1.50;;;17.20;40.20;;;;;;5115911;28;20414;-72
2023/01/28 11:28:38;;;;;;;2.00;1.77;;;17.20;40.50;;;;;;5116257;28;20434;-72
2023/01/28 11:31:04;;;;;;;2.60;1.70;;;17.30;40.50;;;;;;5116073;28;20957;-72
2023/01/28 11:33:38;;;;;;;2.13;1.50;;;17.30;40.10;;;;;;5115618;28;20550;-72
2023/01/28 11:36:04;;;;;;;2.80;2.10;;;17.30;40.10;;;;;;5115646;28;20636;-72
2023/01/28 11:38:30;;;;;;;1.40;1.30;;;17.40;40.10;;;;;;5115589;28;20422;-72
2023/01/28 11:40:57;;;;;;;5.93;1.57;;;17.40;40.30;;;;;;5115585;28;20208;-70
2023/01/28 11:43:26;;;;;;;1.80;1.50;;;17.50;40.40;;;;;;5115381;28;20230;-71
2023/01/28 11:46:18;;;;;;;6.07;1.87;;;17.50;40.30;;;;;;5114479;28;20395;-66
2023/01/28 11:48:59;;;;;;;2.93;1.70;;;17.50;40.30;;;;;;5097737;28;20438;-67
2023/01/28 11:51:33;;;;;;;2.43;1.60;;;17.60;40.40;;;;;;5115303;28;20410;-67
2023/01/28 11:54:29;;;;;;;2.77;1.37;;;17.70;40.60;;;;;;5115383;28;20473;-67
2023/01/28 11:57:17;;;;;;;2.73;1.60;;;17.70;40.70;;;;;;5115623;28;20391;-67
2023/01/28 12:00:22;;;;;;;2.70;1.60;;;17.70;40.60;;;;;;5114694;28;20427;-67
2023/01/28 12:03:03;;;;;;;5.13;1.30;;;17.80;40.70;;;;;;5114893;28;20918;-66
2023/01/28 12:05:41;;;;;;;2.70;1.60;;;17.80;40.80;;;;;;5114750;28;20500;-66
2023/01/28 12:08:17;;;;;;;3.03;1.60;;;17.80;40.70;;;;;;5114889;28;20438;-66
2023/01/28 12:10:49;;;;;;;1.83;1.67;;;17.90;40.80;;;;;;5114627;28;20406;-67
2023/01/28 12:13:24;;;;;;;2.60;1.50;;;17.90;40.80;;;;;;5114766;28;20539;-67
2023/01/28 12:16:17;;;;;;;3.33;1.50;;;17.90;40.90;;;;;;5114824;28;20969;-67
2023/01/28 12:18:59;;;;;;;3.27;1.57;;;18.00;41.10;;;;;;5114582;28;20415;-67
2023/01/28 12:21:39;;;;;;;3.77;1.63;;;18.00;41.00;;;;;;5114816;28;20413;-67
2023/01/28 12:24:14;;;;;;;3.30;1.40;;;18.10;41.10;;;;;;5114843;28;20403;-67
2023/01/28 12:26:58;;;;;;;1.83;1.50;;;18.10;41.10;;;;;;5114786;28;20489;-67
2023/01/28 12:29:40;;;;;;;2.40;1.70;;;18.20;40.90;;;;;;5114601;28;20407;-72
2023/01/28 12:32:38;;;;;;;1.93;1.50;;;18.20;41.10;;;;;;5114292;28;20509;-67
2023/01/28 12:35:21;;;;;;;2.93;1.60;;;18.20;41.10;;;;;;5114835;28;20402;-72
2023/01/28 12:38:04;;;;;;;1.93;1.47;;;18.20;40.80;;;;;;5114632;28;20481;-71
2023/01/28 12:40:58;;;;;;;3.10;1.40;;;18.30;41.50;;;;;;5114333;28;20402;-71
2023/01/28 12:43:45;;;;;;;2.70;1.50;;;18.30;40.80;;;;;;5114387;28;20952;-70
2023/01/28 12:46:50;;;;;;;4.30;1.70;;;18.20;40.90;;;;;;5114418;28;20407;-71
2023/01/28 12:49:33;;;;;;;3.70;2.00;;;18.30;41.20;;;;;;5114394;28;20505;-71
2023/01/28 12:52:08;;;;;;;6.80;1.80;;;18.30;41.20;;;;;;5114334;28;20482;-70
2023/01/28 12:54:43;;;;;;;3.43;1.73;;;18.40;41.20;;;;;;5114469;28;20391;-70
2023/01/28 12:57:25;;;;;;;6.93;2.00;;;18.40;41.20;;;;;;5113971;28;20913;-70
2023/01/28 12:59:55;;;;;;;3.00;1.73;;;18.40;41.20;;;;;;5113925;28;20415;-70
2023/01/28 13:02:37;;;;;;;2.90;2.33;;;18.40;41.30;;;;;;5114087;28;20403;-71
2023/01/28 13:05:17;;;;;;;4.17;2.33;;;18.40;41.50;;;;;;5114046;28;20835;-70
2023/01/28 13:08:00;;;;;;;4.33;2.07;;;18.50;41.40;;;;;;5113830;28;20945;-69
2023/01/28 13:10:34;;;;;;;4.37;1.90;;;18.50;41.40;;;;;;5114286;28;20401;-69
2023/01/28 13:13:00;;;;;;;2.43;2.00;;;18.50;41.40;;;;;;5114177;28;20530;-69
2023/01/28 13:15:25;;;;;;;2.70;1.80;;;18.50;41.40;;;;;;5113867;28;20837;-69
2023/01/28 13:18:00;;;;;;;2.43;2.20;;;18.50;41.40;;;;;;5113827;28;20168;-69
2023/01/28 13:20:34;;;;;;;2.17;1.70;;;18.50;42.00;;;;;;5114148;28;20156;-69
2023/01/28 13:23:05;;;;;;;2.03;1.83;;;18.50;41.30;;;;;;5113618;28;20429;-69
2023/01/28 13:25:33;;;;;;;3.80;2.23;;;18.50;41.40;;;;;;5113944;28;20398;-69
2023/01/28 13:28:04;;;;;;;2.57;1.87;;;18.50;41.70;;;;;;5113947;28;20442;-69
2023/01/28 13:30:45;;;;;;;3.20;1.77;;;18.50;41.70;;;;;;5113809;28;20490;-69
2023/01/28 13:33:37;;;;;;;2.90;1.70;;;18.40;41.70;;;;;;5113839;28;20457;-69
2023/01/28 13:36:27;;;;;;;5.97;2.20;;;18.40;41.60;;;;;;5113637;28;20399;-69
2023/01/28 13:39:13;;;;;;;2.30;1.97;;;18.30;41.70;;;;;;5113849;28;20415;-69
2023/01/28 13:42:06;;;;;;;2.77;1.50;;;18.30;41.50;;;;;;5113864;28;20394;-69
2023/01/28 13:44:34;;;;;;;3.50;2.40;;;18.30;41.80;;;;;;5113612;28;20383;-69